Grassy Plains, Canada
Current Conditions -  °F | °C
As of 12:00 AM on Sunday 26 Oct 2014 (Local Time) from CYYD Reporting Station
Overcast Overcast  
Wind Chill: 31°   Ceiling: 6000
Heat Index: 37°   Visibility: 9mi
Dew Point: 36°   Wind: 8mph
Humidity: 93%   Direction: 340°NNW
Pressure: 29.59"   Gusts: NA
Location:  53.95°N, 125.88°W
Report Text: CYYD 260700Z AUTO 34007KT 9SM OVC060 03/02 A2959 RMK SLP036
Loading
Personal Weather Stations






























Interactive Weather Map
Tropical Storm Tracking
New forecast layout! Learn more

10-Day Weather Forecast

Advertisements
Track Severe Weather on mobile